sensor_id;sensor_type;location;lat;lon;timestamp;temperature;humidity
21189;DHT22;39071;52.420;20.896;2022-11-28T00:01:40;4.80;99.90
21189;DHT22;39071;52.420;20.896;2022-11-28T00:04:08;4.80;1.00
21189;DHT22;39071;52.420;20.896;2022-11-28T00:06:39;4.90;99.90
21189;DHT22;39071;52.420;20.896;2022-11-28T00:09:06;4.90;1.00
21189;DHT22;39071;52.420;20.896;2022-11-28T00:11:32;4.90;1.00
21189;DHT22;39071;52.420;20.896;2022-11-28T00:13:58;4.80;99.90
21189;DHT22;39071;52.420;20.896;2022-11-28T00:16:24;4.80;98.30
21189;DHT22;39071;52.420;20.896;2022-11-28T00:18:51;4.80;1.00
21189;DHT22;39071;52.420;20.896;2022-11-28T00:21:17;4.70;99.90
21189;DHT22;39071;52.420;20.896;2022-11-28T00:23:45;4.60;1.00
21189;DHT22;39071;52.420;20.896;2022-11-28T00:26:18;4.50;1.00
21189;DHT22;39071;52.420;20.896;2022-11-28T00:28:44;4.40;1.00
21189;DHT22;39071;52.420;20.896;2022-11-28T00:31:20;4.40;1.00
21189;DHT22;39071;52.420;20.896;2022-11-28T00:33:47;4.40;67.40
21189;DHT22;39071;52.420;20.896;2022-11-28T00:36:13;4.40;1.00
21189;DHT22;39071;52.420;20.896;2022-11-28T00:38:40;4.40;1.00
21189;DHT22;39071;52.420;20.896;2022-11-28T00:41:09;4.50;1.00
21189;DHT22;39071;52.420;20.896;2022-11-28T00:43:35;4.70;1.00
21189;DHT22;39071;52.420;20.896;2022-11-28T00:46:01;4.50;99.90
21189;DHT22;39071;52.420;20.896;2022-11-28T00:48:28;4.50;1.00
21189;DHT22;39071;52.420;20.896;2022-11-28T00:50:54;4.50;99.90
21189;DHT22;39071;52.420;20.896;2022-11-28T00:53:29;4.50;47.90
21189;DHT22;39071;52.420;20.896;2022-11-28T00:55:55;4.40;1.00
21189;DHT22;39071;52.420;20.896;2022-11-28T00:58:20;4.40;99.90
21189;DHT22;39071;52.420;20.896;2022-11-28T01:00:46;4.40;1.00
21189;DHT22;39071;52.420;20.896;2022-11-28T01:03:12;4.40;99.90
21189;DHT22;39071;52.420;20.896;2022-11-28T01:05:41;4.40;1.00
21189;DHT22;39071;52.420;20.896;2022-11-28T01:08:09;4.50;1.00
21189;DHT22;39071;52.420;20.896;2022-11-28T01:10:42;4.40;1.00
21189;DHT22;39071;52.420;20.896;2022-11-28T01:13:09;4.40;1.00
21189;DHT22;39071;52.420;20.896;2022-11-28T01:15:35;4.40;1.00
21189;DHT22;39071;52.420;20.896;2022-11-28T01:18:01;4.40;99.90
21189;DHT22;39071;52.420;20.896;2022-11-28T01:20:27;4.30;1.00
21189;DHT22;39071;52.420;20.896;2022-11-28T01:22:53;4.30;1.00
21189;DHT22;39071;52.420;20.896;2022-11-28T01:25:19;4.20;99.90
21189;DHT22;39071;52.420;20.896;2022-11-28T01:27:45;4.20;1.00
21189;DHT22;39071;52.420;20.896;2022-11-28T01:30:10;4.20;1.00
21189;DHT22;39071;52.420;20.896;2022-11-28T01:32:36;4.10;1.00
21189;DHT22;39071;52.420;20.896;2022-11-28T01:35:02;4.20;99.90
21189;DHT22;39071;52.420;20.896;2022-11-28T01:37:28;4.20;99.90
21189;DHT22;39071;52.420;20.896;2022-11-28T01:39:54;4.20;99.90
21189;DHT22;39071;52.420;20.896;2022-11-28T01:42:21;4.30;27.20
21189;DHT22;39071;52.420;20.896;2022-11-28T01:47:17;4.40;99.90
21189;DHT22;39071;52.420;20.896;2022-11-28T01:49:46;4.30;1.00
21189;DHT22;39071;52.420;20.896;2022-11-28T01:52:16;4.30;70.10
21189;DHT22;39071;52.420;20.896;2022-11-28T01:54:46;4.30;45.00
21189;DHT22;39071;52.420;20.896;2022-11-28T01:57:19;4.40;94.80
21189;DHT22;39071;52.420;20.896;2022-11-28T02:00:15;4.30;1.00
21189;DHT22;39071;52.420;20.896;2022-11-28T02:02:47;4.40;99.90
21189;DHT22;39071;52.420;20.896;2022-11-28T02:05:14;4.40;99.90
21189;DHT22;39071;52.420;20.896;2022-11-28T02:07:42;4.40;99.90
21189;DHT22;39071;52.420;20.896;2022-11-28T02:10:10;4.30;1.00
21189;DHT22;39071;52.420;20.896;2022-11-28T02:12:52;4.30;1.00
21189;DHT22;39071;52.420;20.896;2022-11-28T02:24:10;4.10;99.90
21189;DHT22;39071;52.420;20.896;2022-11-28T02:29:50;4.10;1.00
21189;DHT22;39071;52.420;20.896;2022-11-28T02:35:19;4.10;99.90
21189;DHT22;39071;52.420;20.896;2022-11-28T02:40:51;4.00;99.90
21189;DHT22;39071;52.420;20.896;2022-11-28T02:43:49;4.00;99.90
21189;DHT22;39071;52.420;20.896;2022-11-28T02:46:26;4.00;1.00
21189;DHT22;39071;52.420;20.896;2022-11-28T02:49:05;4.10;1.00
21189;DHT22;39071;52.420;20.896;2022-11-28T02:51:40;4.10;1.00
21189;DHT22;39071;52.420;20.896;2022-11-28T02:54:10;4.20;24.20
21189;DHT22;39071;52.420;20.896;2022-11-28T02:56:37;4.10;1.00
21189;DHT22;39071;52.420;20.896;2022-11-28T02:59:03;4.20;1.00
21189;DHT22;39071;52.420;20.896;2022-11-28T03:01:35;4.10;47.00
21189;DHT22;39071;52.420;20.896;2022-11-28T03:04:33;4.20;99.90
21189;DHT22;39071;52.420;20.896;2022-11-28T03:07:22;4.20;99.90
21189;DHT22;39071;52.420;20.896;2022-11-28T03:10:18;4.20;1.00
21189;DHT22;39071;52.420;20.896;2022-11-28T03:13:11;4.20;99.90
21189;DHT22;39071;52.420;20.896;2022-11-28T03:18:26;4.30;1.00
21189;DHT22;39071;52.420;20.896;2022-11-28T03:21:23;4.40;1.00
21189;DHT22;39071;52.420;20.896;2022-11-28T03:24:05;4.40;1.00
21189;DHT22;39071;52.420;20.896;2022-11-28T03:26:52;4.40;1.00
21189;DHT22;39071;52.420;20.896;2022-11-28T03:30:15;4.30;1.00
21189;DHT22;39071;52.420;20.896;2022-11-28T03:32:35;4.20;1.00
21189;DHT22;39071;52.420;20.896;2022-11-28T03:35:15;4.10;1.00
21189;DHT22;39071;52.420;20.896;2022-11-28T03:37:47;4.10;99.90
21189;DHT22;39071;52.420;20.896;2022-11-28T03:40:16;4.00;99.90
21189;DHT22;39071;52.420;20.896;2022-11-28T03:42:57;3.90;99.90
21189;DHT22;39071;52.420;20.896;2022-11-28T03:45:28;3.90;1.00
21189;DHT22;39071;52.420;20.896;2022-11-28T03:48:02;3.90;99.90
21189;DHT22;39071;52.420;20.896;2022-11-28T03:53:09;4.00;1.00
21189;DHT22;39071;52.420;20.896;2022-11-28T03:55:44;4.00;1.00
21189;DHT22;39071;52.420;20.896;2022-11-28T03:58:29;4.10;1.00
21189;DHT22;39071;52.420;20.896;2022-11-28T04:01:20;4.10;1.00
21189;DHT22;39071;52.420;20.896;2022-11-28T04:12:54;3.90;1.00
21189;DHT22;39071;52.420;20.896;2022-11-28T04:15:46;3.90;99.90
21189;DHT22;39071;52.420;20.896;2022-11-28T04:18:20;4.00;1.00
21189;DHT22;39071;52.420;20.896;2022-11-28T04:21:02;3.90;99.90
21189;DHT22;39071;52.420;20.896;2022-11-28T04:23:35;3.80;12.00
21189;DHT22;39071;52.420;20.896;2022-11-28T04:26:10;4.70;99.90
21189;DHT22;39071;52.420;20.896;2022-11-28T04:28:39;3.80;99.90
21189;DHT22;39071;52.420;20.896;2022-11-28T04:31:07;3.90;1.00
21189;DHT22;39071;52.420;20.896;2022-11-28T04:33:37;3.70;1.00
21189;DHT22;39071;52.420;20.896;2022-11-28T04:36:05;3.50;1.00
21189;DHT22;39071;52.420;20.896;2022-11-28T04:38:32;3.40;1.00
21189;DHT22;39071;52.420;20.896;2022-11-28T04:41:15;3.40;1.00
21189;DHT22;39071;52.420;20.896;2022-11-28T04:43:50;3.40;99.90
21189;DHT22;39071;52.420;20.896;2022-11-28T04:46:22;3.50;1.00
21189;DHT22;39071;52.420;20.896;2022-11-28T04:48:49;3.60;1.00
21189;DHT22;39071;52.420;20.896;2022-11-28T04:53:59;3.60;99.90
21189;DHT22;39071;52.420;20.896;2022-11-28T04:56:50;3.70;99.90
21189;DHT22;39071;52.420;20.896;2022-11-28T04:59:19;3.60;1.00
21189;DHT22;39071;52.420;20.896;2022-11-28T05:01:47;3.60;1.00
21189;DHT22;39071;52.420;20.896;2022-11-28T05:04:14;3.70;1.00
21189;DHT22;39071;52.420;20.896;2022-11-28T05:06:41;3.60;1.00
21189;DHT22;39071;52.420;20.896;2022-11-28T05:09:10;3.70;1.00
21189;DHT22;39071;52.420;20.896;2022-11-28T05:11:35;4.00;1.00
21189;DHT22;39071;52.420;20.896;2022-11-28T05:14:01;4.60;1.00
21189;DHT22;39071;52.420;20.896;2022-11-28T05:16:27;3.60;1.00
21189;DHT22;39071;52.420;20.896;2022-11-28T05:18:52;3.60;99.90
21189;DHT22;39071;52.420;20.896;2022-11-28T05:21:18;3.60;99.90
21189;DHT22;39071;52.420;20.896;2022-11-28T05:23:44;3.60;99.90
21189;DHT22;39071;52.420;20.896;2022-11-28T05:26:13;3.60;99.90
21189;DHT22;39071;52.420;20.896;2022-11-28T05:28:42;3.60;1.00
21189;DHT22;39071;52.420;20.896;2022-11-28T05:31:09;3.60;1.00
21189;DHT22;39071;52.420;20.896;2022-11-28T05:33:34;3.60;1.00
21189;DHT22;39071;52.420;20.896;2022-11-28T05:36:08;3.60;1.00
21189;DHT22;39071;52.420;20.896;2022-11-28T05:38:35;3.60;1.00
21189;DHT22;39071;52.420;20.896;2022-11-28T05:41:01;3.50;1.00
21189;DHT22;39071;52.420;20.896;2022-11-28T05:43:28;3.30;1.00
21189;DHT22;39071;52.420;20.896;2022-11-28T05:45:54;3.40;99.90
21189;DHT22;39071;52.420;20.896;2022-11-28T05:48:20;3.50;1.00
21189;DHT22;39071;52.420;20.896;2022-11-28T05:50:46;3.30;1.00
21189;DHT22;39071;52.420;20.896;2022-11-28T05:53:16;3.40;1.00
21189;DHT22;39071;52.420;20.896;2022-11-28T05:55:42;3.40;1.00
21189;DHT22;39071;52.420;20.896;2022-11-28T05:58:08;3.40;1.00
21189;DHT22;39071;52.420;20.896;2022-11-28T06:00:34;3.40;1.00
21189;DHT22;39071;52.420;20.896;2022-11-28T06:03:00;3.30;1.00
21189;DHT22;39071;52.420;20.896;2022-11-28T06:05:27;3.30;1.00
21189;DHT22;39071;52.420;20.896;2022-11-28T06:07:52;3.40;1.00
21189;DHT22;39071;52.420;20.896;2022-11-28T06:10:18;3.50;14.10
21189;DHT22;39071;52.420;20.896;2022-11-28T06:12:46;3.50;1.00
21189;DHT22;39071;52.420;20.896;2022-11-28T06:15:12;3.40;1.00
21189;DHT22;39071;52.420;20.896;2022-11-28T06:17:38;3.50;1.00
21189;DHT22;39071;52.420;20.896;2022-11-28T06:20:04;3.40;1.00
21189;DHT22;39071;52.420;20.896;2022-11-28T06:22:30;3.40;1.00
21189;DHT22;39071;52.420;20.896;2022-11-28T06:24:55;3.30;1.00
21189;DHT22;39071;52.420;20.896;2022-11-28T06:27:21;3.30;1.00
21189;DHT22;39071;52.420;20.896;2022-11-28T06:29:47;3.30;1.00
21189;DHT22;39071;52.420;20.896;2022-11-28T06:32:12;3.20;44.80
21189;DHT22;39071;52.420;20.896;2022-11-28T06:34:38;3.20;40.60
21189;DHT22;39071;52.420;20.896;2022-11-28T06:37:04;3.20;99.90
21189;DHT22;39071;52.420;20.896;2022-11-28T06:39:29;3.20;1.00
21189;DHT22;39071;52.420;20.896;2022-11-28T06:41:56;3.30;1.00
21189;DHT22;39071;52.420;20.896;2022-11-28T06:44:22;3.30;1.00
21189;DHT22;39071;52.420;20.896;2022-11-28T06:46:48;3.10;99.90
21189;DHT22;39071;52.420;20.896;2022-11-28T06:49:14;3.10;1.00
21189;DHT22;39071;52.420;20.896;2022-11-28T06:51:40;3.10;1.00
21189;DHT22;39071;52.420;20.896;2022-11-28T06:54:06;3.00;1.00
21189;DHT22;39071;52.420;20.896;2022-11-28T06:56:31;3.00;1.00
21189;DHT22;39071;52.420;20.896;2022-11-28T06:58:58;2.80;1.00
21189;DHT22;39071;52.420;20.896;2022-11-28T07:01:26;2.80;99.90
21189;DHT22;39071;52.420;20.896;2022-11-28T07:03:52;2.80;99.90
21189;DHT22;39071;52.420;20.896;2022-11-28T07:06:22;2.90;99.90
21189;DHT22;39071;52.420;20.896;2022-11-28T07:08:49;2.80;99.90
21189;DHT22;39071;52.420;20.896;2022-11-28T07:11:27;2.80;99.90
21189;DHT22;39071;52.420;20.896;2022-11-28T07:13:54;2.80;99.90
21189;DHT22;39071;52.420;20.896;2022-11-28T07:16:24;2.70;99.90
21189;DHT22;39071;52.420;20.896;2022-11-28T07:18:51;2.70;99.90
21189;DHT22;39071;52.420;20.896;2022-11-28T07:21:18;2.80;99.90
21189;DHT22;39071;52.420;20.896;2022-11-28T07:23:44;2.70;99.90
21189;DHT22;39071;52.420;20.896;2022-11-28T07:26:11;2.90;99.90
21189;DHT22;39071;52.420;20.896;2022-11-28T07:28:38;2.90;99.90
21189;DHT22;39071;52.420;20.896;2022-11-28T07:31:11;3.00;99.90
21189;DHT22;39071;52.420;20.896;2022-11-28T07:33:39;3.10;99.90
21189;DHT22;39071;52.420;20.896;2022-11-28T07:36:21;3.10;99.90
21189;DHT22;39071;52.420;20.896;2022-11-28T07:38:52;3.10;99.90
21189;DHT22;39071;52.420;20.896;2022-11-28T07:41:19;3.00;99.90
21189;DHT22;39071;52.420;20.896;2022-11-28T07:43:46;3.10;99.90
21189;DHT22;39071;52.420;20.896;2022-11-28T07:46:15;3.00;99.90
21189;DHT22;39071;52.420;20.896;2022-11-28T07:48:42;3.00;99.90
21189;DHT22;39071;52.420;20.896;2022-11-28T07:51:25;3.00;99.90
21189;DHT22;39071;52.420;20.896;2022-11-28T07:53:52;3.10;99.90
21189;DHT22;39071;52.420;20.896;2022-11-28T07:56:23;3.10;99.90
21189;DHT22;39071;52.420;20.896;2022-11-28T07:58:50;3.00;99.90
21189;DHT22;39071;52.420;20.896;2022-11-28T08:01:18;3.20;99.90
21189;DHT22;39071;52.420;20.896;2022-11-28T08:03:45;3.10;99.90
21189;DHT22;39071;52.420;20.896;2022-11-28T08:06:11;3.20;99.90
21189;DHT22;39071;52.420;20.896;2022-11-28T08:08:37;3.20;99.90
21189;DHT22;39071;52.420;20.896;2022-11-28T08:11:05;3.10;99.90
21189;DHT22;39071;52.420;20.896;2022-11-28T08:13:31;3.00;99.90
21189;DHT22;39071;52.420;20.896;2022-11-28T08:15:57;3.00;99.90
21189;DHT22;39071;52.420;20.896;2022-11-28T08:18:23;3.20;99.90
21189;DHT22;39071;52.420;20.896;2022-11-28T08:20:49;3.20;99.90
21189;DHT22;39071;52.420;20.896;2022-11-28T08:23:15;3.20;99.90
21189;DHT22;39071;52.420;20.896;2022-11-28T08:25:40;3.30;99.90
21189;DHT22;39071;52.420;20.896;2022-11-28T08:28:06;3.30;99.90
21189;DHT22;39071;52.420;20.896;2022-11-28T08:30:32;3.20;99.90
21189;DHT22;39071;52.420;20.896;2022-11-28T08:32:57;3.10;99.90
21189;DHT22;39071;52.420;20.896;2022-11-28T08:35:23;3.10;99.90
21189;DHT22;39071;52.420;20.896;2022-11-28T08:37:49;3.00;99.90
21189;DHT22;39071;52.420;20.896;2022-11-28T08:40:15;3.10;99.90
21189;DHT22;39071;52.420;20.896;2022-11-28T08:42:41;2.90;99.90
21189;DHT22;39071;52.420;20.896;2022-11-28T08:45:09;2.90;99.90
21189;DHT22;39071;52.420;20.896;2022-11-28T08:47:34;2.90;99.90
21189;DHT22;39071;52.420;20.896;2022-11-28T08:50:01;3.00;99.90
21189;DHT22;39071;52.420;20.896;2022-11-28T08:52:26;2.80;99.90
21189;DHT22;39071;52.420;20.896;2022-11-28T08:54:52;2.80;99.90
21189;DHT22;39071;52.420;20.896;2022-11-28T08:57:18;2.80;99.90
21189;DHT22;39071;52.420;20.896;2022-11-28T08:59:44;2.80;99.90
21189;DHT22;39071;52.420;20.896;2022-11-28T09:02:10;3.20;99.90
21189;DHT22;39071;52.420;20.896;2022-11-28T09:04:37;3.00;99.90
21189;DHT22;39071;52.420;20.896;2022-11-28T09:07:03;3.20;99.90
21189;DHT22;39071;52.420;20.896;2022-11-28T09:09:28;3.30;99.90
21189;DHT22;39071;52.420;20.896;2022-11-28T09:11:54;3.10;99.90
21189;DHT22;39071;52.420;20.896;2022-11-28T09:14:20;3.20;99.90
21189;DHT22;39071;52.420;20.896;2022-11-28T09:16:45;3.20;99.90
21189;DHT22;39071;52.420;20.896;2022-11-28T09:19:12;3.40;99.90
21189;DHT22;39071;52.420;20.896;2022-11-28T09:21:37;3.30;99.90
21189;DHT22;39071;52.420;20.896;2022-11-28T09:24:03;3.50;99.90
21189;DHT22;39071;52.420;20.896;2022-11-28T09:26:29;3.60;99.90
21189;DHT22;39071;52.420;20.896;2022-11-28T09:28:55;3.50;99.90
21189;DHT22;39071;52.420;20.896;2022-11-28T09:31:21;3.70;99.90
21189;DHT22;39071;52.420;20.896;2022-11-28T09:33:47;4.10;85.40
21189;DHT22;39071;52.420;20.896;2022-11-28T09:36:19;3.80;70.70
21189;DHT22;39071;52.420;20.896;2022-11-28T09:38:45;3.60;34.50
21189;DHT22;39071;52.420;20.896;2022-11-28T09:46:41;3.70;99.90
21189;DHT22;39071;52.420;20.896;2022-11-28T09:51:57;3.70;96.70
21189;DHT22;39071;52.420;20.896;2022-11-28T09:54:44;3.70;87.20
21189;DHT22;39071;52.420;20.896;2022-11-28T09:57:20;3.80;99.90
21189;DHT22;39071;52.420;20.896;2022-11-28T09:59:49;3.70;66.00
21189;DHT22;39071;52.420;20.896;2022-11-28T10:02:44;3.60;17.80
21189;DHT22;39071;52.420;20.896;2022-11-28T10:05:26;4.20;47.60
21189;DHT22;39071;52.420;20.896;2022-11-28T10:10:59;3.90;14.20
21189;DHT22;39071;52.420;20.896;2022-11-28T10:16:34;4.00;1.00
21189;DHT22;39071;52.420;20.896;2022-11-28T10:18:59;4.00;1.00
21189;DHT22;39071;52.420;20.896;2022-11-28T10:21:45;4.00;1.00
21189;DHT22;39071;52.420;20.896;2022-11-28T10:24:43;4.20;1.00
21189;DHT22;39071;52.420;20.896;2022-11-28T10:27:12;4.10;1.00
21189;DHT22;39071;52.420;20.896;2022-11-28T10:29:57;4.20;1.00
21189;DHT22;39071;52.420;20.896;2022-11-28T10:32:29;4.30;1.00
21189;DHT22;39071;52.420;20.896;2022-11-28T10:35:06;4.40;1.00
21189;DHT22;39071;52.420;20.896;2022-11-28T10:37:36;4.20;1.00
21189;DHT22;39071;52.420;20.896;2022-11-28T11:04:58;4.70;1.00
21189;DHT22;39071;52.420;20.896;2022-11-28T11:07:30;4.60;1.00
21189;DHT22;39071;52.420;20.896;2022-11-28T11:10:22;4.60;1.00
21189;DHT22;39071;52.420;20.896;2022-11-28T11:12:45;4.50;99.90
21189;DHT22;39071;52.420;20.896;2022-11-28T11:15:19;4.50;99.90
21189;DHT22;39071;52.420;20.896;2022-11-28T11:17:46;4.50;99.90
21189;DHT22;39071;52.420;20.896;2022-11-28T11:22:58;4.60;99.90
21189;DHT22;39071;52.420;20.896;2022-11-28T11:25:25;4.50;1.00
21189;DHT22;39071;52.420;20.896;2022-11-28T11:28:02;4.50;99.90
21189;DHT22;39071;52.420;20.896;2022-11-28T11:30:32;4.60;1.00
21189;DHT22;39071;52.420;20.896;2022-11-28T11:32:59;4.80;99.90
21189;DHT22;39071;52.420;20.896;2022-11-28T11:35:28;4.70;1.00
21189;DHT22;39071;52.420;20.896;2022-11-28T11:40:49;5.10;1.00
21189;DHT22;39071;52.420;20.896;2022-11-28T11:43:28;4.70;1.00
21189;DHT22;39071;52.420;20.896;2022-11-28T11:46:11;4.80;1.00
21189;DHT22;39071;52.420;20.896;2022-11-28T11:48:45;4.60;1.00
21189;DHT22;39071;52.420;20.896;2022-11-28T11:51:24;4.60;1.00
21189;DHT22;39071;52.420;20.896;2022-11-28T11:54:01;4.70;1.00
21189;DHT22;39071;52.420;20.896;2022-11-28T11:56:36;4.70;99.90
21189;DHT22;39071;52.420;20.896;2022-11-28T11:59:15;4.80;1.00
21189;DHT22;39071;52.420;20.896;2022-11-28T12:01:43;4.60;1.00
21189;DHT22;39071;52.420;20.896;2022-11-28T12:04:25;4.70;99.90
21189;DHT22;39071;52.420;20.896;2022-11-28T12:06:53;4.70;1.00
21189;DHT22;39071;52.420;20.896;2022-11-28T12:09:45;5.10;99.90
21189;DHT22;39071;52.420;20.896;2022-11-28T12:12:23;4.60;1.00
21189;DHT22;39071;52.420;20.896;2022-11-28T12:14:50;4.60;1.00
21189;DHT22;39071;52.420;20.896;2022-11-28T12:25:52;4.40;99.90
21189;DHT22;39071;52.420;20.896;2022-11-28T12:31:01;4.40;1.00
21189;DHT22;39071;52.420;20.896;2022-11-28T12:46:29;4.40;1.00
21189;DHT22;39071;52.420;20.896;2022-11-28T12:49:33;4.30;99.90
21189;DHT22;39071;52.420;20.896;2022-11-28T12:58:20;4.30;99.90
21189;DHT22;39071;52.420;20.896;2022-11-28T13:01:14;4.10;99.90
21189;DHT22;39071;52.420;20.896;2022-11-28T13:06:31;4.10;1.00
21189;DHT22;39071;52.420;20.896;2022-11-28T13:11:50;3.80;99.90
21189;DHT22;39071;52.420;20.896;2022-11-28T13:14:35;3.90;56.30
21189;DHT22;39071;52.420;20.896;2022-11-28T13:30:49;3.80;1.00
21189;DHT22;39071;52.420;20.896;2022-11-28T13:44:41;3.80;1.00
21189;DHT22;39071;52.420;20.896;2022-11-28T13:49:46;3.90;1.00
21189;DHT22;39071;52.420;20.896;2022-11-28T13:54:51;4.00;1.00
21189;DHT22;39071;52.420;20.896;2022-11-28T13:57:20;3.90;1.00
21189;DHT22;39071;52.420;20.896;2022-11-28T14:00:22;3.90;99.90
21189;DHT22;39071;52.420;20.896;2022-11-28T14:02:44;3.90;99.90
21189;DHT22;39071;52.420;20.896;2022-11-28T14:05:35;3.80;1.00
21189;DHT22;39071;52.420;20.896;2022-11-28T14:08:03;3.90;99.90
21189;DHT22;39071;52.420;20.896;2022-11-28T14:16:50;3.80;99.90
21189;DHT22;39071;52.420;20.896;2022-11-28T14:22:00;3.70;1.00
21189;DHT22;39071;52.420;20.896;2022-11-28T14:24:52;3.60;99.90
21189;DHT22;39071;52.420;20.896;2022-11-28T14:27:25;3.60;1.00
21189;DHT22;39071;52.420;20.896;2022-11-28T14:29:53;3.60;1.00
21189;DHT22;39071;52.420;20.896;2022-11-28T14:32:36;3.70;1.00
21189;DHT22;39071;52.420;20.896;2022-11-28T14:35:05;3.70;28.70
21189;DHT22;39071;52.420;20.896;2022-11-28T14:39:58;3.70;99.90
21189;DHT22;39071;52.420;20.896;2022-11-28T14:44:52;3.80;99.90
21189;DHT22;39071;52.420;20.896;2022-11-28T14:47:33;3.70;1.00
21189;DHT22;39071;52.420;20.896;2022-11-28T14:52:41;3.70;99.90
21189;DHT22;39071;52.420;20.896;2022-11-28T15:00:26;3.80;1.00
21189;DHT22;39071;52.420;20.896;2022-11-28T15:03:11;3.60;99.90
21189;DHT22;39071;52.420;20.896;2022-11-28T15:05:51;3.70;99.90
21189;DHT22;39071;52.420;20.896;2022-11-28T15:11:18;3.50;99.90
21189;DHT22;39071;52.420;20.896;2022-11-28T15:16:18;3.50;1.00
21189;DHT22;39071;52.420;20.896;2022-11-28T15:18:49;3.40;1.00
21189;DHT22;39071;52.420;20.896;2022-11-28T15:21:18;3.40;1.00
21189;DHT22;39071;52.420;20.896;2022-11-28T15:23:45;3.30;1.00
21189;DHT22;39071;52.420;20.896;2022-11-28T15:26:30;3.50;99.90
21189;DHT22;39071;52.420;20.896;2022-11-28T15:29:19;3.50;1.00
21189;DHT22;39071;52.420;20.896;2022-11-28T15:31:46;3.50;1.00
21189;DHT22;39071;52.420;20.896;2022-11-28T15:34:30;3.50;99.90
21189;DHT22;39071;52.420;20.896;2022-11-28T15:36:58;3.40;99.90
21189;DHT22;39071;52.420;20.896;2022-11-28T15:39:29;3.40;99.90
21189;DHT22;39071;52.420;20.896;2022-11-28T15:41:57;3.40;99.90
21189;DHT22;39071;52.420;20.896;2022-11-28T15:44:25;3.40;1.00
21189;DHT22;39071;52.420;20.896;2022-11-28T15:46:52;3.40;99.90
21189;DHT22;39071;52.420;20.896;2022-11-28T15:49:33;3.70;1.00
21189;DHT22;39071;52.420;20.896;2022-11-28T15:52:02;3.40;99.90
21189;DHT22;39071;52.420;20.896;2022-11-28T15:54:39;3.40;99.90
21189;DHT22;39071;52.420;20.896;2022-11-28T15:57:22;3.20;97.90
21189;DHT22;39071;52.420;20.896;2022-11-28T15:59:49;3.20;99.90
21189;DHT22;39071;52.420;20.896;2022-11-28T16:02:23;3.10;1.00
21189;DHT22;39071;52.420;20.896;2022-11-28T16:07:33;3.00;99.90
21189;DHT22;39071;52.420;20.896;2022-11-28T16:10:05;3.10;1.00
21189;DHT22;39071;52.420;20.896;2022-11-28T16:12:31;3.10;99.90
21189;DHT22;39071;52.420;20.896;2022-11-28T16:14:58;3.10;1.00
21189;DHT22;39071;52.420;20.896;2022-11-28T16:17:32;3.10;1.00
21189;DHT22;39071;52.420;20.896;2022-11-28T16:19:59;3.10;99.90
21189;DHT22;39071;52.420;20.896;2022-11-28T16:22:31;3.20;1.00
21189;DHT22;39071;52.420;20.896;2022-11-28T16:25:30;3.10;1.00
21189;DHT22;39071;52.420;20.896;2022-11-28T16:27:55;3.10;1.00
21189;DHT22;39071;52.420;20.896;2022-11-28T16:32:48;3.00;99.90
21189;DHT22;39071;52.420;20.896;2022-11-28T16:37:49;2.90;1.00
21189;DHT22;39071;52.420;20.896;2022-11-28T16:40:19;2.90;1.00
21189;DHT22;39071;52.420;20.896;2022-11-28T16:42:55;2.90;99.90
21189;DHT22;39071;52.420;20.896;2022-11-28T16:45:28;2.90;1.00
21189;DHT22;39071;52.420;20.896;2022-11-28T16:48:07;2.90;99.90
21189;DHT22;39071;52.420;20.896;2022-11-28T16:50:34;2.90;99.90
21189;DHT22;39071;52.420;20.896;2022-11-28T16:53:00;2.90;1.00
21189;DHT22;39071;52.420;20.896;2022-11-28T16:58:01;3.00;1.00
21189;DHT22;39071;52.420;20.896;2022-11-28T17:00:34;3.00;99.90
21189;DHT22;39071;52.420;20.896;2022-11-28T17:03:01;3.00;1.00
21189;DHT22;39071;52.420;20.896;2022-11-28T17:05:28;2.80;1.00
21189;DHT22;39071;52.420;20.896;2022-11-28T17:07:54;3.00;1.00
21189;DHT22;39071;52.420;20.896;2022-11-28T17:10:20;3.00;99.90
21189;DHT22;39071;52.420;20.896;2022-11-28T17:12:45;3.10;1.00
21189;DHT22;39071;52.420;20.896;2022-11-28T17:15:18;2.90;99.90
21189;DHT22;39071;52.420;20.896;2022-11-28T17:17:44;3.10;1.00
21189;DHT22;39071;52.420;20.896;2022-11-28T17:20:14;3.00;99.90
21189;DHT22;39071;52.420;20.896;2022-11-28T17:22:44;3.00;1.00
21189;DHT22;39071;52.420;20.896;2022-11-28T17:25:19;3.70;1.00
21189;DHT22;39071;52.420;20.896;2022-11-28T17:27:46;3.00;99.90
21189;DHT22;39071;52.420;20.896;2022-11-28T17:30:16;2.90;36.90
21189;DHT22;39071;52.420;20.896;2022-11-28T17:32:43;2.90;99.90
21189;DHT22;39071;52.420;20.896;2022-11-28T17:35:16;2.90;99.90
21189;DHT22;39071;52.420;20.896;2022-11-28T17:37:43;2.80;99.90
21189;DHT22;39071;52.420;20.896;2022-11-28T17:40:09;2.90;99.90
21189;DHT22;39071;52.420;20.896;2022-11-28T17:42:53;2.90;1.00
21189;DHT22;39071;52.420;20.896;2022-11-28T17:45:19;2.80;1.00
21189;DHT22;39071;52.420;20.896;2022-11-28T17:47:45;2.80;1.00
21189;DHT22;39071;52.420;20.896;2022-11-28T17:50:11;2.70;1.00
21189;DHT22;39071;52.420;20.896;2022-11-28T17:52:37;2.60;99.90
21189;DHT22;39071;52.420;20.896;2022-11-28T17:55:02;2.80;1.00
21189;DHT22;39071;52.420;20.896;2022-11-28T17:57:30;2.80;1.00
21189;DHT22;39071;52.420;20.896;2022-11-28T17:59:56;2.80;1.00
21189;DHT22;39071;52.420;20.896;2022-11-28T18:02:22;2.70;1.00
21189;DHT22;39071;52.420;20.896;2022-11-28T18:04:48;2.80;1.00
21189;DHT22;39071;52.420;20.896;2022-11-28T18:07:13;2.80;1.00
21189;DHT22;39071;52.420;20.896;2022-11-28T18:09:39;2.70;1.00
21189;DHT22;39071;52.420;20.896;2022-11-28T18:12:05;2.70;31.90
21189;DHT22;39071;52.420;20.896;2022-11-28T18:14:31;2.70;1.00
21189;DHT22;39071;52.420;20.896;2022-11-28T18:16:56;2.80;1.00
21189;DHT22;39071;52.420;20.896;2022-11-28T18:19:22;2.90;99.90
21189;DHT22;39071;52.420;20.896;2022-11-28T18:21:48;2.80;1.00
21189;DHT22;39071;52.420;20.896;2022-11-28T18:24:13;2.90;1.00
21189;DHT22;39071;52.420;20.896;2022-11-28T18:26:39;2.80;1.00
21189;DHT22;39071;52.420;20.896;2022-11-28T18:29:05;2.70;1.00
21189;DHT22;39071;52.420;20.896;2022-11-28T18:31:34;2.80;1.00
21189;DHT22;39071;52.420;20.896;2022-11-28T18:34:02;2.70;1.00
21189;DHT22;39071;52.420;20.896;2022-11-28T18:36:30;2.70;1.00
21189;DHT22;39071;52.420;20.896;2022-11-28T18:38:57;2.70;1.00
21189;DHT22;39071;52.420;20.896;2022-11-28T18:41:23;3.10;1.00
21189;DHT22;39071;52.420;20.896;2022-11-28T18:43:57;2.60;99.90
21189;DHT22;39071;52.420;20.896;2022-11-28T18:46:24;2.70;99.90
21189;DHT22;39071;52.420;20.896;2022-11-28T18:48:50;2.80;99.90
21189;DHT22;39071;52.420;20.896;2022-11-28T18:51:20;2.80;99.90
21189;DHT22;39071;52.420;20.896;2022-11-28T18:53:47;2.70;99.90
21189;DHT22;39071;52.420;20.896;2022-11-28T18:56:14;2.70;99.90
21189;DHT22;39071;52.420;20.896;2022-11-28T18:58:42;2.70;99.90
21189;DHT22;39071;52.420;20.896;2022-11-28T19:01:20;2.60;1.00
21189;DHT22;39071;52.420;20.896;2022-11-28T19:03:58;2.60;1.00
21189;DHT22;39071;52.420;20.896;2022-11-28T19:06:24;2.50;98.30